• Join FlightAware (Why Join?)
  • Login
  • US Flag 
09:46AM EST


 

Airport Tracker/Info


-or-


 

Live Flight TrackerFlight Track Log ✈ N724AG ✈ 24-Jul-2013 ✈ KSAV - KMMU

Flight Track Log - Related Links

Times and Time Zones

All times are in EDT time to prevent confusion due to time zone crossing. See the N724AG flight status page for this flight to view local times or setup timezone preferences in your user account.

Time Position Orientation Groundspeed Altitude Reporting Facility
EDT Latitude Longitude Course Direction KTS MPH feet Rate Location/Type
02:16PM 35.2925 -79.1878 26° Northeast 493 567 41,000  Level Washington Center
02:22PM 35.9820 -78.7760 25° Northeast 493 567 41,000  Level FlightAware
02:23PM 36.0780 -78.7190 26° Northeast 495 570 41,000  Level FlightAware
02:23PM 36.1600 -78.6690 26° Northeast 495 570 41,000  Level FlightAware
02:24PM 36.2500 -78.6150 26° Northeast 494 568 41,000  Level FlightAware
02:25PM 36.3310 -78.5610 28° Northeast 497 572 41,000  Level FlightAware
02:25PM 36.4120 -78.4960 33° Northeast 499 574 41,000  Level FlightAware
02:26PM 36.4980 -78.4270 33° Northeast 500 575 41,000  Level FlightAware
02:27PM 36.5730 -78.3650 34° Northeast 500 575 41,000  Level FlightAware
02:27PM 36.6570 -78.2960 33° Northeast 503 579 41,000  Level FlightAware
02:28PM 36.7320 -78.2350 33° Northeast 503 579 41,000  Level FlightAware
02:29PM 36.8210 -78.1620 33° Northeast 503 579 41,000  Level FlightAware
02:30PM 36.9270 -78.0750 33° Northeast 503 579 41,000  Level FlightAware
02:30PM 36.9870 -78.0270 33° Northeast 503 579 41,000  Level FlightAware
02:31PM 37.0920 -77.9390 34° Northeast 510 587 41,000  Level FlightAware
02:32PM 37.1780 -77.8670 34° Northeast 514 592 41,000  Level FlightAware
02:33PM 37.3080 -77.7590 33° Northeast 516 594 41,000  Level FlightAware
02:34PM 37.3930 -77.6880 34° Northeast 518 596 41,000  Level FlightAware
02:34PM 37.4730 -77.6200 34° Northeast 518 596 41,000  Level FlightAware
02:35PM 37.5510 -77.5550 33° Northeast 517 595 41,000  Level FlightAware
02:36PM 37.6320 -77.4870 34° Northeast 515 593 41,000 -632 Level FlightAware
02:36PM 37.7020 -77.4280 34° Northeast 502 578 40,200 -1,350 Descending FlightAware
02:37PM 37.7890 -77.3540 34° Northeast 514 592 39,200 -1,357 Descending FlightAware
02:38PM 37.8660 -77.2880 34° Northeast 518 596 38,300 -1,395 Descending FlightAware
02:38PM 37.9590 -77.2090 34° Northeast 522 601 37,200 -1,465 Descending FlightAware
02:39PM 38.0410 -77.1400 34° Northeast 525 604 36,200 -1,425 Descending FlightAware
02:40PM 38.1190 -77.0730 34° Northeast 527 606 35,300 -1,367 Descending FlightAware
02:40PM 38.1984 -77.0031 35° Northeast 526 605 34,400 -1,385 Descending FlightAware ADS-B
02:41PM 38.2730 -76.9290 38° Northeast 521 600 33,500 -1,273 Descending FlightAware
02:42PM 38.3223 -76.8776 39° Northeast 522 601 33,000 -484 Descending FlightAware ADS-B
02:42PM 38.3882 -76.8085 39° Northeast 523 602 33,000  Level FlightAware ADS-B
02:43PM 38.4464 -76.7475 39° Northeast 527 606 33,000  Level FlightAware ADS-B
02:43PM 38.5109 -76.6795 40° Northeast 526 605 33,000  Level FlightAware ADS-B
02:44PM 38.5635 -76.6253 39° Northeast 525 604 33,000  Level FlightAware ADS-B
02:44PM 38.5916 -76.5998 35° Northeast 525 604 33,000 -279 Level FlightAware ADS-B
02:44PM 38.6524 -76.5535 31° Northeast 525 604 32,800 -1,000 Descending FlightAware ADS-B
02:45PM 38.7291 -76.5045 26° Northeast 522 601 31,900 -1,816 Descending FlightAware ADS-B
02:46PM 38.8144 -76.4502 26° Northeast 508 585 30,500 -2,314 Descending FlightAware ADS-B
02:46PM 38.8767 -76.4104 26° Northeast 494 568 29,200 -2,600 Descending FlightAware ADS-B
02:47PM 38.9389 -76.3706 26° Northeast 485 558 27,900 -2,557 Descending FlightAware ADS-B
02:47PM 38.9997 -76.3316 26° Northeast 478 550 26,600 -2,571 Descending FlightAware ADS-B
02:48PM 39.0627 -76.2912 26° Northeast 471 542 25,200 -2,571 Descending FlightAware ADS-B
02:48PM 39.1062 -76.2625 27° Northeast 461 531 24,200 -1,674 Descending FlightAware ADS-B
02:48PM 39.1425 -76.2335 32° Northeast 462 532 24,000 -273 Descending FlightAware ADS-B
02:49PM 39.1843 -76.1913 38° Northeast 466 536 24,000  Level FlightAware ADS-B
02:49PM 39.2329 -76.1345 42° Northeast 468 539 24,000  Level FlightAware ADS-B
02:50PM 39.2840 -76.0792 40° Northeast 463 533 24,000  Level FlightAware ADS-B
02:50PM 39.3395 -76.0260 37° Northeast 462 532 24,000 -462 Level FlightAware ADS-B
02:51PM 39.3963 -75.9723 36° Northeast 460 529 23,500 -1,143 Descending FlightAware ADS-B
02:51PM 39.4471 -75.9241 36° Northeast 451 519 22,800 -1,477 Descending FlightAware ADS-B
02:52PM 39.5062 -75.8676 36° Northeast 444 511 21,900 -1,455 Descending FlightAware ADS-B
02:53PM 39.5514 -75.8155 42° Northeast 415 478 21,200 -1,279 Descending FlightAware ADS-B
02:53PM 39.5935 -75.7663 42° Northeast 401 461 20,600 -1,377 Descending FlightAware ADS-B
02:54PM 39.6349 -75.7170 43° Northeast 390 449 19,800 -2,361 Descending FlightAware ADS-B
02:54PM 39.6750 -75.6695 42° Northeast 386 444 18,200 -3,344 Descending FlightAware ADS-B
02:55PM 39.7149 -75.6225 42° Northeast 381 438 16,400 -3,647 Descending FlightAware ADS-B
02:55PM 39.7435 -75.5953 36° Northeast 375 432 15,100 -3,412 Descending FlightAware ADS-B
02:55PM 39.7903 -75.5634 28° Northeast 360 414 13,500 -1,714 Descending FlightAware ADS-B
02:56PM 39.8383 -75.5366 23° Northeast 352 405 13,300 -188 Descending FlightAware ADS-B
02:57PM 39.8867 -75.5118 21° North 353 406 13,300  Level FlightAware ADS-B
02:57PM 39.9285 -75.4908 21° North 350 403 13,300  Level FlightAware ADS-B
02:57PM 39.9560 -75.4757 23° Northeast 351 404 13,300  Level FlightAware ADS-B
02:58PM 40.0029 -75.4523 21° North 354 407 13,300  Level FlightAware ADS-B
02:58PM 40.0392 -75.4338 21° North 354 407 13,300  Level FlightAware ADS-B
02:59PM 40.0682 -75.4164 25° Northeast 356 410 13,300 -353 Level FlightAware ADS-B
02:59PM 40.0900 -75.4014 28° Northeast 356 410 13,100 -783 Descending FlightAware ADS-B
02:59PM 40.1333 -75.3674 31° Northeast 353 406 12,700 -885 Descending FlightAware ADS-B
03:00PM 40.1765 -75.3342 30° Northeast 352 405 12,200 -933 Descending FlightAware ADS-B
03:00PM 40.1964 -75.3185 31° Northeast 353 406 12,000 -800 Descending FlightAware ADS-B
03:00PM 40.2161 -75.3000 36° Northeast 355 409 11,800 -857 Descending FlightAware ADS-B
03:00PM 40.2330 -75.2812 40° Northeast 353 406 11,600 -698 Descending FlightAware ADS-B
03:01PM 40.2670 -75.2345 46° Northeast 352 405 11,300 -316 Descending FlightAware ADS-B
03:01PM 40.2957 -75.1908 49° Northeast 354 407 11,300 -310 Level FlightAware ADS-B
03:02PM 40.3271 -75.1410 50° Northeast 352 405 11,000 -590 Descending FlightAware ADS-B
03:02PM 40.3578 -75.0929 50° Northeast 327 376 10,700 -885 Descending FlightAware ADS-B
03:03PM 40.3868 -75.0469 50° Northeast 311 358 10,100 -1,149 Descending FlightAware ADS-B
03:03PM 40.4014 -75.0240 50° Northeast 311 358 9,800 -1,355 Descending FlightAware ADS-B
03:03PM 40.4150 -75.0013 52° Northeast 309 356 9,400 -1,000 Descending FlightAware ADS-B
03:04PM 40.4285 -74.9792 51° Northeast 312 359 9,300 -938 Descending FlightAware ADS-B
03:04PM 40.4434 -74.9547 51° Northeast 310 357 8,900 -1,355 Descending FlightAware ADS-B
03:04PM 40.4558 -74.9341 52° Northeast 311 358 8,600 -1,143 Descending FlightAware ADS-B
03:04PM 40.4615 -74.9241 53° Northeast 311 358 8,500 -1,091 Descending FlightAware ADS-B
03:05PM 40.4740 -74.9004 55° Northeast 307 353 8,200 -1,250 Descending FlightAware ADS-B
03:05PM 40.4812 -74.8871 55° Northeast 305 351 8,000 -1,500 Descending FlightAware ADS-B
03:05PM 40.4874 -74.8770 51° Northeast 303 349 7,800 -1,364 Descending FlightAware ADS-B
03:05PM 40.5015 -74.8559 49° Northeast 300 345 7,500 -1,000 Descending FlightAware ADS-B
03:05PM 40.5100 -74.8438 47° Northeast 301 346 7,400 -1,059 Descending FlightAware ADS-B
03:05PM 40.5176 -74.8322 49° Northeast 302 348 7,200 -1,333 Descending FlightAware ADS-B
03:06PM 40.5262 -74.8177 52° Northeast 302 348 7,000 -1,000 Descending FlightAware ADS-B
03:06PM 40.5315 -74.8065 58° Northeast 301 346 6,900 -923 Descending FlightAware ADS-B
03:06PM 40.5346 -74.7976 65° Northeast 299 344 6,800 -1,091 Descending FlightAware ADS-B
03:06PM 40.5365 -74.7881 75° East 298 343 6,700 -1,333 Descending FlightAware ADS-B
03:06PM 40.5371 -74.7824 82° East 298 343 6,600 -1,000 Descending FlightAware ADS-B
03:06PM 40.5372 -74.7759 89° East 297 342 6,600 -750 Level FlightAware ADS-B
03:06PM 40.5364 -74.7670 97° East 296 341 6,500 -1,286 Descending FlightAware ADS-B
03:06PM 40.5338 -74.7520 103° East 294 338 6,300 -1,636 Descending FlightAware ADS-B
03:07PM 40.5251 -74.7112 106° East 294 338 5,600 -1,500 Descending FlightAware ADS-B
03:07PM 40.5207 -74.6906 106° East 286 329 5,400 -1,034 Descending FlightAware ADS-B
03:07PM 40.5172 -74.6617 99° East 290 334 5,100 -1,091 Descending FlightAware ADS-B
03:07PM 40.5174 -74.6529 88° East 290 334 5,000 -1,600 Descending FlightAware ADS-B
03:07PM 40.5188 -74.6351 84° East 291 335 4,700 -2,000 Descending FlightAware ADS-B
03:08PM 40.5215 -74.6211 76° East 291 335 4,400 -2,400 Descending FlightAware ADS-B
03:08PM 40.5255 -74.6091 66° East 291 335 4,100 -2,000 Descending FlightAware ADS-B
03:08PM 40.5373 -74.5912 49° Northeast 288 331 3,700 -1,636 Descending FlightAware ADS-B
03:08PM 40.5460 -74.5839 33° Northeast 285 328 3,500 -1,385 Descending FlightAware ADS-B
03:08PM 40.5518 -74.5799 28° Northeast 282 325 3,400 -400 Descending FlightAware ADS-B
03:08PM 40.5804 -74.5609 27° Northeast 271 312 3,300 -91 Descending FlightAware ADS-B
03:09PM 40.6233 -74.5321 27° Northeast 236 272 3,300  Level FlightAware ADS-B
03:10PM 40.6472 -74.5166 26° Northeast 242 278 3,300  Level FlightAware ADS-B
03:10PM 40.6743 -74.5025 22° Northeast 240 276 3,300 -113 Level FlightAware ADS-B
03:10PM 40.7032 -74.4885 20° North 240 276 3,200 -508 Descending FlightAware ADS-B
03:11PM 40.7370 -74.4780 13° North 236 272 2,800 -774 Descending FlightAware
03:11PM 40.7600 -74.4710 13° North 237 273 2,400 -824 Descending FlightAware
03:12PM 40.7880 -74.4560 22° Northeast 218 251 2,100 -375 Descending FlightAware
03:12PM 40.8080 -74.4400 31° Northeast 218 251 2,100 -148 Level FlightAware
03:13PM 40.8500 -74.4167 31° Northeast 165 190 1,900 -421 Descending New York TRACON
03:14PM 40.8333 -74.3667 114° Southeast 167 192 1,300 -550 Descending New York TRACON
03:15PM 40.8167 -74.4000 237° Southwest 138 159 800 -500 Descending New York TRACON
03:17PM 40.7993 -74.4149 57° Northeast  Level Estimated
03:24PM 40.7993 -74.4149 57° Northeast  Level Estimated
03:25PM 40.7993 -74.4149 57° Northeast  Level Estimated
03:26PM 40.7993 -74.4149 57° Northeast  Level Estimated
03:27PM 40.7993 -74.4149 57° Northeast  Level Estimated